sensor_id;sensor_type;location;lat;lon;timestamp;P1;durP1;ratioP1;P2;durP2;ratioP2
58360;SDS011;44164;44.954;10.068;2024-02-26T00:01:54;3.55;;;2.15;;
58360;SDS011;44164;44.954;10.068;2024-02-26T00:04:20;2.80;;;1.60;;
58360;SDS011;44164;44.954;10.068;2024-02-26T00:06:47;3.28;;;1.80;;
58360;SDS011;44164;44.954;10.068;2024-02-26T00:09:16;3.85;;;1.83;;
58360;SDS011;44164;44.954;10.068;2024-02-26T00:11:42;3.63;;;2.30;;
58360;SDS011;44164;44.954;10.068;2024-02-26T00:14:08;5.75;;;1.98;;
58360;SDS011;44164;44.954;10.068;2024-02-26T00:16:34;3.80;;;1.85;;
58360;SDS011;44164;44.954;10.068;2024-02-26T00:19:00;4.22;;;2.10;;
58360;SDS011;44164;44.954;10.068;2024-02-26T00:21:27;4.13;;;1.85;;
58360;SDS011;44164;44.954;10.068;2024-02-26T00:23:53;3.50;;;1.83;;
58360;SDS011;44164;44.954;10.068;2024-02-26T00:26:19;4.43;;;2.10;;
58360;SDS011;44164;44.954;10.068;2024-02-26T00:28:46;4.25;;;1.85;;
58360;SDS011;44164;44.954;10.068;2024-02-26T00:31:12;3.88;;;2.35;;
58360;SDS011;44164;44.954;10.068;2024-02-26T00:33:38;4.88;;;2.05;;
58360;SDS011;44164;44.954;10.068;2024-02-26T00:36:04;3.08;;;1.70;;
58360;SDS011;44164;44.954;10.068;2024-02-26T00:38:30;4.93;;;1.80;;
58360;SDS011;44164;44.954;10.068;2024-02-26T00:40:56;3.92;;;2.05;;
58360;SDS011;44164;44.954;10.068;2024-02-26T00:43:23;3.35;;;2.08;;
58360;SDS011;44164;44.954;10.068;2024-02-26T00:45:49;4.10;;;2.20;;
58360;SDS011;44164;44.954;10.068;2024-02-26T00:48:15;4.60;;;2.25;;
58360;SDS011;44164;44.954;10.068;2024-02-26T00:50:41;4.95;;;2.42;;
58360;SDS011;44164;44.954;10.068;2024-02-26T00:53:08;3.95;;;1.95;;
58360;SDS011;44164;44.954;10.068;2024-02-26T00:55:34;5.60;;;1.80;;
58360;SDS011;44164;44.954;10.068;2024-02-26T00:58:00;4.88;;;1.92;;
58360;SDS011;44164;44.954;10.068;2024-02-26T01:00:26;2.90;;;1.63;;
58360;SDS011;44164;44.954;10.068;2024-02-26T01:02:52;5.00;;;2.10;;
58360;SDS011;44164;44.954;10.068;2024-02-26T01:05:18;3.40;;;1.92;;
58360;SDS011;44164;44.954;10.068;2024-02-26T01:07:44;4.53;;;2.38;;
58360;SDS011;44164;44.954;10.068;2024-02-26T01:10:11;2.53;;;1.50;;
58360;SDS011;44164;44.954;10.068;2024-02-26T01:12:37;3.03;;;2.08;;
58360;SDS011;44164;44.954;10.068;2024-02-26T01:15:03;4.28;;;1.83;;
58360;SDS011;44164;44.954;10.068;2024-02-26T01:17:30;3.45;;;1.70;;
58360;SDS011;44164;44.954;10.068;2024-02-26T01:19:56;3.15;;;1.75;;
58360;SDS011;44164;44.954;10.068;2024-02-26T01:22:22;4.00;;;1.60;;
58360;SDS011;44164;44.954;10.068;2024-02-26T01:24:48;4.32;;;2.20;;
58360;SDS011;44164;44.954;10.068;2024-02-26T01:27:14;3.05;;;1.70;;
58360;SDS011;44164;44.954;10.068;2024-02-26T01:29:41;3.53;;;1.80;;
58360;SDS011;44164;44.954;10.068;2024-02-26T01:32:07;3.92;;;2.10;;
58360;SDS011;44164;44.954;10.068;2024-02-26T01:34:34;2.90;;;1.60;;
58360;SDS011;44164;44.954;10.068;2024-02-26T01:37:00;3.42;;;2.03;;
58360;SDS011;44164;44.954;10.068;2024-02-26T01:39:26;3.03;;;1.73;;
58360;SDS011;44164;44.954;10.068;2024-02-26T01:44:21;3.45;;;1.70;;
58360;SDS011;44164;44.954;10.068;2024-02-26T01:46:47;3.75;;;1.60;;
58360;SDS011;44164;44.954;10.068;2024-02-26T01:49:13;5.53;;;1.83;;
58360;SDS011;44164;44.954;10.068;2024-02-26T01:51:41;3.42;;;1.98;;
58360;SDS011;44164;44.954;10.068;2024-02-26T01:54:08;4.03;;;1.83;;
58360;SDS011;44164;44.954;10.068;2024-02-26T01:56:35;3.08;;;1.70;;
58360;SDS011;44164;44.954;10.068;2024-02-26T01:59:02;2.95;;;1.30;;
58360;SDS011;44164;44.954;10.068;2024-02-26T02:01:30;3.47;;;1.73;;
58360;SDS011;44164;44.954;10.068;2024-02-26T02:03:58;3.42;;;1.85;;
58360;SDS011;44164;44.954;10.068;2024-02-26T02:06:24;3.27;;;1.63;;
58360;SDS011;44164;44.954;10.068;2024-02-26T02:08:51;2.95;;;1.42;;
58360;SDS011;44164;44.954;10.068;2024-02-26T02:11:17;2.75;;;1.63;;
58360;SDS011;44164;44.954;10.068;2024-02-26T02:13:43;2.88;;;1.67;;
58360;SDS011;44164;44.954;10.068;2024-02-26T02:16:09;4.00;;;2.20;;
58360;SDS011;44164;44.954;10.068;2024-02-26T02:18:35;2.85;;;1.42;;
58360;SDS011;44164;44.954;10.068;2024-02-26T02:21:01;4.32;;;1.65;;
58360;SDS011;44164;44.954;10.068;2024-02-26T02:23:28;2.67;;;1.88;;
58360;SDS011;44164;44.954;10.068;2024-02-26T02:25:54;3.40;;;1.77;;
58360;SDS011;44164;44.954;10.068;2024-02-26T02:28:22;2.33;;;1.50;;
58360;SDS011;44164;44.954;10.068;2024-02-26T02:30:49;3.70;;;1.92;;
58360;SDS011;44164;44.954;10.068;2024-02-26T02:33:15;3.10;;;1.70;;
58360;SDS011;44164;44.954;10.068;2024-02-26T02:35:41;2.90;;;1.65;;
58360;SDS011;44164;44.954;10.068;2024-02-26T02:38:08;2.53;;;1.42;;
58360;SDS011;44164;44.954;10.068;2024-02-26T02:40:34;3.88;;;1.95;;
58360;SDS011;44164;44.954;10.068;2024-02-26T02:43:00;2.58;;;1.60;;
58360;SDS011;44164;44.954;10.068;2024-02-26T02:45:30;3.20;;;1.60;;
58360;SDS011;44164;44.954;10.068;2024-02-26T02:47:57;2.80;;;1.55;;
58360;SDS011;44164;44.954;10.068;2024-02-26T02:50:23;2.78;;;1.60;;
58360;SDS011;44164;44.954;10.068;2024-02-26T02:52:49;3.33;;;1.75;;
58360;SDS011;44164;44.954;10.068;2024-02-26T02:55:16;2.42;;;1.40;;
58360;SDS011;44164;44.954;10.068;2024-02-26T02:57:42;2.88;;;1.88;;
58360;SDS011;44164;44.954;10.068;2024-02-26T03:00:08;2.63;;;1.40;;
58360;SDS011;44164;44.954;10.068;2024-02-26T03:02:35;2.33;;;1.45;;
58360;SDS011;44164;44.954;10.068;2024-02-26T03:05:04;2.88;;;1.40;;
58360;SDS011;44164;44.954;10.068;2024-02-26T03:07:31;2.65;;;1.63;;
58360;SDS011;44164;44.954;10.068;2024-02-26T03:09:57;2.47;;;1.50;;
58360;SDS011;44164;44.954;10.068;2024-02-26T03:12:23;5.88;;;2.10;;
58360;SDS011;44164;44.954;10.068;2024-02-26T03:14:49;2.95;;;1.50;;
58360;SDS011;44164;44.954;10.068;2024-02-26T03:17:17;2.80;;;1.55;;
58360;SDS011;44164;44.954;10.068;2024-02-26T03:19:46;2.20;;;1.40;;
58360;SDS011;44164;44.954;10.068;2024-02-26T03:22:13;2.75;;;1.45;;
58360;SDS011;44164;44.954;10.068;2024-02-26T03:24:39;3.75;;;1.80;;
58360;SDS011;44164;44.954;10.068;2024-02-26T03:27:05;3.65;;;1.85;;
58360;SDS011;44164;44.954;10.068;2024-02-26T03:29:35;2.25;;;1.48;;
58360;SDS011;44164;44.954;10.068;2024-02-26T03:32:01;2.50;;;1.60;;
58360;SDS011;44164;44.954;10.068;2024-02-26T03:34:28;2.50;;;1.27;;
58360;SDS011;44164;44.954;10.068;2024-02-26T03:36:54;2.67;;;1.50;;
58360;SDS011;44164;44.954;10.068;2024-02-26T03:39:20;3.35;;;1.65;;
58360;SDS011;44164;44.954;10.068;2024-02-26T03:41:46;2.45;;;1.50;;
58360;SDS011;44164;44.954;10.068;2024-02-26T03:44:12;2.83;;;1.70;;
58360;SDS011;44164;44.954;10.068;2024-02-26T03:46:38;2.53;;;1.65;;
58360;SDS011;44164;44.954;10.068;2024-02-26T03:49:04;2.17;;;1.42;;
58360;SDS011;44164;44.954;10.068;2024-02-26T03:51:31;2.80;;;1.63;;
58360;SDS011;44164;44.954;10.068;2024-02-26T03:53:58;3.63;;;1.95;;
58360;SDS011;44164;44.954;10.068;2024-02-26T03:56:25;2.47;;;1.60;;
58360;SDS011;44164;44.954;10.068;2024-02-26T03:58:51;3.45;;;1.80;;
58360;SDS011;44164;44.954;10.068;2024-02-26T04:01:18;3.53;;;1.67;;
58360;SDS011;44164;44.954;10.068;2024-02-26T04:03:44;2.35;;;1.80;;
58360;SDS011;44164;44.954;10.068;2024-02-26T04:06:10;2.38;;;1.40;;
58360;SDS011;44164;44.954;10.068;2024-02-26T04:08:37;3.53;;;1.85;;
58360;SDS011;44164;44.954;10.068;2024-02-26T04:11:03;2.88;;;1.80;;
58360;SDS011;44164;44.954;10.068;2024-02-26T04:13:33;2.65;;;1.70;;
58360;SDS011;44164;44.954;10.068;2024-02-26T04:15:59;2.83;;;1.88;;
58360;SDS011;44164;44.954;10.068;2024-02-26T04:18:27;3.10;;;1.77;;
58360;SDS011;44164;44.954;10.068;2024-02-26T04:20:53;3.63;;;1.80;;
58360;SDS011;44164;44.954;10.068;2024-02-26T04:23:20;3.65;;;1.90;;
58360;SDS011;44164;44.954;10.068;2024-02-26T04:25:46;2.85;;;1.75;;
58360;SDS011;44164;44.954;10.068;2024-02-26T04:28:12;3.63;;;1.80;;
58360;SDS011;44164;44.954;10.068;2024-02-26T04:30:38;3.00;;;1.95;;
58360;SDS011;44164;44.954;10.068;2024-02-26T04:33:05;2.72;;;1.85;;
58360;SDS011;44164;44.954;10.068;2024-02-26T04:35:31;3.33;;;1.77;;
58360;SDS011;44164;44.954;10.068;2024-02-26T04:37:57;4.03;;;1.73;;
58360;SDS011;44164;44.954;10.068;2024-02-26T04:40:23;2.97;;;1.90;;
58360;SDS011;44164;44.954;10.068;2024-02-26T04:42:50;2.45;;;1.70;;
58360;SDS011;44164;44.954;10.068;2024-02-26T04:45:16;3.17;;;1.92;;
58360;SDS011;44164;44.954;10.068;2024-02-26T04:47:42;2.35;;;1.60;;
58360;SDS011;44164;44.954;10.068;2024-02-26T04:50:08;3.63;;;1.90;;
58360;SDS011;44164;44.954;10.068;2024-02-26T04:52:34;3.30;;;1.88;;
58360;SDS011;44164;44.954;10.068;2024-02-26T04:55:01;3.30;;;2.05;;
58360;SDS011;44164;44.954;10.068;2024-02-26T04:57:27;2.63;;;1.83;;
58360;SDS011;44164;44.954;10.068;2024-02-26T04:59:53;2.40;;;1.60;;
58360;SDS011;44164;44.954;10.068;2024-02-26T05:02:19;2.35;;;1.60;;
58360;SDS011;44164;44.954;10.068;2024-02-26T05:04:45;2.35;;;1.45;;
58360;SDS011;44164;44.954;10.068;2024-02-26T05:07:11;3.97;;;1.60;;
58360;SDS011;44164;44.954;10.068;2024-02-26T05:09:38;2.30;;;1.50;;
58360;SDS011;44164;44.954;10.068;2024-02-26T05:12:04;2.60;;;1.60;;
58360;SDS011;44164;44.954;10.068;2024-02-26T05:14:30;3.88;;;1.70;;
58360;SDS011;44164;44.954;10.068;2024-02-26T05:16:57;2.42;;;1.50;;
58360;SDS011;44164;44.954;10.068;2024-02-26T05:19:23;2.50;;;1.60;;
58360;SDS011;44164;44.954;10.068;2024-02-26T05:21:49;2.28;;;1.65;;
58360;SDS011;44164;44.954;10.068;2024-02-26T05:24:16;2.83;;;1.58;;
58360;SDS011;44164;44.954;10.068;2024-02-26T05:26:43;2.22;;;1.52;;
58360;SDS011;44164;44.954;10.068;2024-02-26T05:29:10;2.40;;;1.50;;
58360;SDS011;44164;44.954;10.068;2024-02-26T05:31:37;3.10;;;2.00;;
58360;SDS011;44164;44.954;10.068;2024-02-26T05:34:03;2.50;;;1.70;;
58360;SDS011;44164;44.954;10.068;2024-02-26T05:36:29;2.80;;;1.50;;
58360;SDS011;44164;44.954;10.068;2024-02-26T05:38:59;2.53;;;1.52;;
58360;SDS011;44164;44.954;10.068;2024-02-26T05:41:26;3.47;;;1.60;;
58360;SDS011;44164;44.954;10.068;2024-02-26T05:43:52;2.47;;;1.70;;
58360;SDS011;44164;44.954;10.068;2024-02-26T05:46:19;2.53;;;1.60;;
58360;SDS011;44164;44.954;10.068;2024-02-26T05:48:47;3.40;;;1.70;;
58360;SDS011;44164;44.954;10.068;2024-02-26T05:51:13;3.20;;;1.83;;
58360;SDS011;44164;44.954;10.068;2024-02-26T05:53:43;2.70;;;1.65;;
58360;SDS011;44164;44.954;10.068;2024-02-26T05:56:09;2.55;;;1.50;;
58360;SDS011;44164;44.954;10.068;2024-02-26T05:58:35;3.50;;;1.40;;
58360;SDS011;44164;44.954;10.068;2024-02-26T06:01:01;2.60;;;1.73;;
58360;SDS011;44164;44.954;10.068;2024-02-26T06:03:28;2.30;;;1.58;;
58360;SDS011;44164;44.954;10.068;2024-02-26T06:05:54;2.47;;;1.58;;
58360;SDS011;44164;44.954;10.068;2024-02-26T06:08:20;4.35;;;2.10;;
58360;SDS011;44164;44.954;10.068;2024-02-26T06:10:46;2.17;;;1.50;;
58360;SDS011;44164;44.954;10.068;2024-02-26T06:13:12;2.22;;;1.20;;
58360;SDS011;44164;44.954;10.068;2024-02-26T06:15:38;1.88;;;1.30;;
58360;SDS011;44164;44.954;10.068;2024-02-26T06:18:05;2.58;;;1.60;;
58360;SDS011;44164;44.954;10.068;2024-02-26T06:20:31;3.00;;;1.50;;
58360;SDS011;44164;44.954;10.068;2024-02-26T06:22:57;2.55;;;1.48;;
58360;SDS011;44164;44.954;10.068;2024-02-26T06:25:23;2.17;;;1.40;;
58360;SDS011;44164;44.954;10.068;2024-02-26T06:27:49;10.57;;;2.90;;
58360;SDS011;44164;44.954;10.068;2024-02-26T06:30:15;7.45;;;2.58;;
58360;SDS011;44164;44.954;10.068;2024-02-26T06:32:41;9.35;;;2.83;;
58360;SDS011;44164;44.954;10.068;2024-02-26T06:35:07;5.93;;;2.95;;
58360;SDS011;44164;44.954;10.068;2024-02-26T06:37:35;10.20;;;2.65;;
58360;SDS011;44164;44.954;10.068;2024-02-26T06:40:02;8.70;;;3.03;;
58360;SDS011;44164;44.954;10.068;2024-02-26T06:42:32;9.52;;;4.10;;
58360;SDS011;44164;44.954;10.068;2024-02-26T06:44:59;12.07;;;5.22;;
58360;SDS011;44164;44.954;10.068;2024-02-26T06:47:25;7.90;;;5.90;;
58360;SDS011;44164;44.954;10.068;2024-02-26T06:49:51;6.45;;;4.82;;
58360;SDS011;44164;44.954;10.068;2024-02-26T06:52:17;6.20;;;4.30;;
58360;SDS011;44164;44.954;10.068;2024-02-26T06:54:43;7.63;;;4.43;;
58360;SDS011;44164;44.954;10.068;2024-02-26T06:57:10;11.13;;;4.32;;
58360;SDS011;44164;44.954;10.068;2024-02-26T06:59:36;7.53;;;4.05;;
58360;SDS011;44164;44.954;10.068;2024-02-26T07:02:02;8.30;;;4.05;;
58360;SDS011;44164;44.954;10.068;2024-02-26T07:04:29;10.30;;;4.45;;
58360;SDS011;44164;44.954;10.068;2024-02-26T07:06:57;9.13;;;4.32;;
58360;SDS011;44164;44.954;10.068;2024-02-26T07:09:23;7.13;;;4.10;;
58360;SDS011;44164;44.954;10.068;2024-02-26T07:11:50;7.50;;;4.15;;
58360;SDS011;44164;44.954;10.068;2024-02-26T07:14:16;9.15;;;4.15;;
58360;SDS011;44164;44.954;10.068;2024-02-26T07:16:42;9.45;;;4.43;;
58360;SDS011;44164;44.954;10.068;2024-02-26T07:19:08;9.75;;;5.00;;
58360;SDS011;44164;44.954;10.068;2024-02-26T07:21:35;14.50;;;6.07;;
58360;SDS011;44164;44.954;10.068;2024-02-26T07:24:01;12.70;;;5.55;;
58360;SDS011;44164;44.954;10.068;2024-02-26T07:26:28;12.68;;;5.05;;
58360;SDS011;44164;44.954;10.068;2024-02-26T07:31:22;7.15;;;4.72;;
58360;SDS011;44164;44.954;10.068;2024-02-26T07:33:48;7.43;;;4.22;;
58360;SDS011;44164;44.954;10.068;2024-02-26T07:36:15;6.85;;;3.80;;
58360;SDS011;44164;44.954;10.068;2024-02-26T07:38:41;8.20;;;4.50;;
58360;SDS011;44164;44.954;10.068;2024-02-26T07:41:07;7.63;;;4.22;;
58360;SDS011;44164;44.954;10.068;2024-02-26T07:43:33;8.05;;;4.05;;
58360;SDS011;44164;44.954;10.068;2024-02-26T07:45:59;9.15;;;4.75;;
58360;SDS011;44164;44.954;10.068;2024-02-26T07:48:25;7.13;;;4.15;;
58360;SDS011;44164;44.954;10.068;2024-02-26T07:50:51;7.05;;;4.07;;
58360;SDS011;44164;44.954;10.068;2024-02-26T07:53:18;5.82;;;3.72;;
58360;SDS011;44164;44.954;10.068;2024-02-26T07:55:44;6.05;;;3.90;;
58360;SDS011;44164;44.954;10.068;2024-02-26T07:58:10;6.57;;;3.90;;
58360;SDS011;44164;44.954;10.068;2024-02-26T08:00:36;6.65;;;3.70;;
58360;SDS011;44164;44.954;10.068;2024-02-26T08:03:03;7.10;;;3.67;;
58360;SDS011;44164;44.954;10.068;2024-02-26T08:05:29;8.30;;;4.10;;
58360;SDS011;44164;44.954;10.068;2024-02-26T08:07:55;6.80;;;3.53;;
58360;SDS011;44164;44.954;10.068;2024-02-26T08:10:21;7.28;;;3.85;;
58360;SDS011;44164;44.954;10.068;2024-02-26T08:12:47;6.72;;;4.40;;
58360;SDS011;44164;44.954;10.068;2024-02-26T08:15:14;6.85;;;3.45;;
58360;SDS011;44164;44.954;10.068;2024-02-26T08:17:40;8.10;;;3.42;;
58360;SDS011;44164;44.954;10.068;2024-02-26T08:20:06;8.88;;;3.50;;
58360;SDS011;44164;44.954;10.068;2024-02-26T08:22:32;6.40;;;2.97;;
58360;SDS011;44164;44.954;10.068;2024-02-26T08:24:59;5.10;;;2.85;;
58360;SDS011;44164;44.954;10.068;2024-02-26T08:27:25;8.27;;;3.42;;
58360;SDS011;44164;44.954;10.068;2024-02-26T08:29:51;4.95;;;2.83;;
58360;SDS011;44164;44.954;10.068;2024-02-26T08:32:17;6.40;;;3.30;;
58360;SDS011;44164;44.954;10.068;2024-02-26T08:34:44;6.63;;;3.60;;
58360;SDS011;44164;44.954;10.068;2024-02-26T08:37:10;5.57;;;3.15;;
58360;SDS011;44164;44.954;10.068;2024-02-26T08:39:36;4.57;;;2.83;;
58360;SDS011;44164;44.954;10.068;2024-02-26T08:42:02;6.15;;;2.92;;
58360;SDS011;44164;44.954;10.068;2024-02-26T08:44:29;5.72;;;3.33;;
58360;SDS011;44164;44.954;10.068;2024-02-26T08:46:55;6.88;;;3.42;;
58360;SDS011;44164;44.954;10.068;2024-02-26T08:49:21;5.63;;;3.03;;
58360;SDS011;44164;44.954;10.068;2024-02-26T08:51:49;5.25;;;3.10;;
58360;SDS011;44164;44.954;10.068;2024-02-26T08:54:15;6.05;;;2.70;;
58360;SDS011;44164;44.954;10.068;2024-02-26T08:56:41;5.25;;;3.10;;
58360;SDS011;44164;44.954;10.068;2024-02-26T08:59:07;6.18;;;2.70;;
58360;SDS011;44164;44.954;10.068;2024-02-26T09:01:33;5.82;;;3.28;;
58360;SDS011;44164;44.954;10.068;2024-02-26T09:04:00;4.45;;;2.72;;
58360;SDS011;44164;44.954;10.068;2024-02-26T09:06:26;5.07;;;3.15;;
58360;SDS011;44164;44.954;10.068;2024-02-26T09:08:53;7.25;;;3.15;;
58360;SDS011;44164;44.954;10.068;2024-02-26T09:11:19;4.25;;;2.55;;
58360;SDS011;44164;44.954;10.068;2024-02-26T09:13:46;5.28;;;2.40;;
58360;SDS011;44164;44.954;10.068;2024-02-26T09:16:12;11.30;;;3.20;;
58360;SDS011;44164;44.954;10.068;2024-02-26T09:18:38;3.53;;;2.45;;
58360;SDS011;44164;44.954;10.068;2024-02-26T09:21:05;6.18;;;2.83;;
58360;SDS011;44164;44.954;10.068;2024-02-26T09:23:31;6.88;;;2.97;;
58360;SDS011;44164;44.954;10.068;2024-02-26T09:25:58;6.90;;;2.70;;
58360;SDS011;44164;44.954;10.068;2024-02-26T09:28:24;5.30;;;2.55;;
58360;SDS011;44164;44.954;10.068;2024-02-26T09:30:50;3.55;;;2.38;;
58360;SDS011;44164;44.954;10.068;2024-02-26T09:33:17;4.55;;;2.58;;
58360;SDS011;44164;44.954;10.068;2024-02-26T09:35:43;5.72;;;2.38;;
58360;SDS011;44164;44.954;10.068;2024-02-26T09:38:09;5.75;;;2.53;;
58360;SDS011;44164;44.954;10.068;2024-02-26T09:40:35;5.60;;;2.40;;
58360;SDS011;44164;44.954;10.068;2024-02-26T09:43:03;4.90;;;2.13;;
58360;SDS011;44164;44.954;10.068;2024-02-26T09:45:30;6.90;;;2.42;;
58360;SDS011;44164;44.954;10.068;2024-02-26T09:47:58;4.63;;;2.80;;
58360;SDS011;44164;44.954;10.068;2024-02-26T09:50:24;5.70;;;2.60;;
58360;SDS011;44164;44.954;10.068;2024-02-26T09:52:51;6.57;;;2.85;;
58360;SDS011;44164;44.954;10.068;2024-02-26T09:55:18;8.25;;;2.90;;
58360;SDS011;44164;44.954;10.068;2024-02-26T09:57:46;5.68;;;2.72;;
58360;SDS011;44164;44.954;10.068;2024-02-26T10:00:14;5.50;;;3.05;;
58360;SDS011;44164;44.954;10.068;2024-02-26T10:02:43;6.38;;;3.92;;
58360;SDS011;44164;44.954;10.068;2024-02-26T10:05:11;3.75;;;2.65;;
58360;SDS011;44164;44.954;10.068;2024-02-26T10:07:38;5.55;;;2.60;;
58360;SDS011;44164;44.954;10.068;2024-02-26T10:10:04;7.57;;;3.00;;
58360;SDS011;44164;44.954;10.068;2024-02-26T10:12:31;12.20;;;3.22;;
58360;SDS011;44164;44.954;10.068;2024-02-26T10:14:58;8.88;;;3.75;;
58360;SDS011;44164;44.954;10.068;2024-02-26T10:17:24;8.80;;;3.80;;
58360;SDS011;44164;44.954;10.068;2024-02-26T10:19:50;8.55;;;3.15;;
58360;SDS011;44164;44.954;10.068;2024-02-26T10:22:20;11.75;;;3.72;;
58360;SDS011;44164;44.954;10.068;2024-02-26T10:24:48;5.22;;;3.10;;
58360;SDS011;44164;44.954;10.068;2024-02-26T10:27:14;6.30;;;3.55;;
58360;SDS011;44164;44.954;10.068;2024-02-26T10:29:40;10.10;;;3.20;;
58360;SDS011;44164;44.954;10.068;2024-02-26T10:32:09;6.55;;;3.20;;
58360;SDS011;44164;44.954;10.068;2024-02-26T10:34:35;5.57;;;2.92;;
58360;SDS011;44164;44.954;10.068;2024-02-26T10:39:30;7.37;;;2.93;;
58360;SDS011;44164;44.954;10.068;2024-02-26T10:41:56;5.85;;;2.63;;
58360;SDS011;44164;44.954;10.068;2024-02-26T10:44:23;9.15;;;3.15;;
58360;SDS011;44164;44.954;10.068;2024-02-26T10:46:49;6.65;;;2.67;;
58360;SDS011;44164;44.954;10.068;2024-02-26T10:49:15;7.20;;;2.45;;
58360;SDS011;44164;44.954;10.068;2024-02-26T10:51:44;7.13;;;2.65;;
58360;SDS011;44164;44.954;10.068;2024-02-26T10:54:12;4.57;;;2.80;;
58360;SDS011;44164;44.954;10.068;2024-02-26T10:56:41;4.35;;;2.42;;
58360;SDS011;44164;44.954;10.068;2024-02-26T10:59:09;4.95;;;2.53;;
58360;SDS011;44164;44.954;10.068;2024-02-26T11:01:36;5.50;;;2.75;;
58360;SDS011;44164;44.954;10.068;2024-02-26T11:04:08;5.63;;;2.47;;
58360;SDS011;44164;44.954;10.068;2024-02-26T11:06:35;4.43;;;2.58;;
58360;SDS011;44164;44.954;10.068;2024-02-26T11:09:02;6.10;;;2.70;;
58360;SDS011;44164;44.954;10.068;2024-02-26T11:11:29;8.40;;;2.97;;
58360;SDS011;44164;44.954;10.068;2024-02-26T11:13:57;3.20;;;2.05;;
58360;SDS011;44164;44.954;10.068;2024-02-26T11:16:23;3.35;;;2.00;;
58360;SDS011;44164;44.954;10.068;2024-02-26T11:18:51;6.28;;;2.40;;
58360;SDS011;44164;44.954;10.068;2024-02-26T11:21:21;4.25;;;2.40;;
58360;SDS011;44164;44.954;10.068;2024-02-26T11:23:57;3.85;;;2.38;;
58360;SDS011;44164;44.954;10.068;2024-02-26T11:26:23;3.63;;;1.80;;
58360;SDS011;44164;44.954;10.068;2024-02-26T11:28:49;5.18;;;2.67;;
58360;SDS011;44164;44.954;10.068;2024-02-26T11:31:33;5.35;;;2.15;;
58360;SDS011;44164;44.954;10.068;2024-02-26T11:33:59;2.97;;;2.05;;
58360;SDS011;44164;44.954;10.068;2024-02-26T11:36:25;3.45;;;2.33;;
58360;SDS011;44164;44.954;10.068;2024-02-26T11:38:52;3.35;;;2.28;;
58360;SDS011;44164;44.954;10.068;2024-02-26T11:41:18;3.65;;;2.40;;
58360;SDS011;44164;44.954;10.068;2024-02-26T11:43:52;3.78;;;2.25;;
58360;SDS011;44164;44.954;10.068;2024-02-26T11:48:56;4.22;;;2.55;;
58360;SDS011;44164;44.954;10.068;2024-02-26T11:51:42;4.47;;;2.38;;
58360;SDS011;44164;44.954;10.068;2024-02-26T11:54:08;3.25;;;1.98;;
58360;SDS011;44164;44.954;10.068;2024-02-26T11:56:35;5.70;;;2.15;;
58360;SDS011;44164;44.954;10.068;2024-02-26T11:59:09;5.15;;;2.13;;
58360;SDS011;44164;44.954;10.068;2024-02-26T12:01:40;4.03;;;1.88;;
58360;SDS011;44164;44.954;10.068;2024-02-26T12:04:17;7.07;;;2.47;;
58360;SDS011;44164;44.954;10.068;2024-02-26T12:06:57;3.10;;;2.30;;
58360;SDS011;44164;44.954;10.068;2024-02-26T12:09:45;3.65;;;2.25;;
58360;SDS011;44164;44.954;10.068;2024-02-26T12:12:14;12.60;;;2.55;;
58360;SDS011;44164;44.954;10.068;2024-02-26T12:14:50;5.63;;;2.47;;
58360;SDS011;44164;44.954;10.068;2024-02-26T12:17:21;4.30;;;2.00;;
58360;SDS011;44164;44.954;10.068;2024-02-26T12:19:49;6.93;;;2.58;;
58360;SDS011;44164;44.954;10.068;2024-02-26T12:24:43;5.55;;;2.33;;
58360;SDS011;44164;44.954;10.068;2024-02-26T12:27:09;4.45;;;2.15;;
58360;SDS011;44164;44.954;10.068;2024-02-26T12:29:35;4.82;;;2.10;;
58360;SDS011;44164;44.954;10.068;2024-02-26T12:32:03;5.13;;;2.05;;
58360;SDS011;44164;44.954;10.068;2024-02-26T12:34:30;3.63;;;2.05;;
58360;SDS011;44164;44.954;10.068;2024-02-26T12:36:57;3.50;;;1.98;;
58360;SDS011;44164;44.954;10.068;2024-02-26T12:39:23;4.22;;;2.10;;
58360;SDS011;44164;44.954;10.068;2024-02-26T12:41:50;4.03;;;1.95;;
58360;SDS011;44164;44.954;10.068;2024-02-26T12:44:16;3.50;;;2.20;;
58360;SDS011;44164;44.954;10.068;2024-02-26T12:46:42;3.58;;;1.77;;
58360;SDS011;44164;44.954;10.068;2024-02-26T12:49:09;7.63;;;2.33;;
58360;SDS011;44164;44.954;10.068;2024-02-26T12:51:40;4.00;;;1.90;;
58360;SDS011;44164;44.954;10.068;2024-02-26T12:54:07;5.53;;;2.13;;
58360;SDS011;44164;44.954;10.068;2024-02-26T12:56:34;4.23;;;1.93;;
58360;SDS011;44164;44.954;10.068;2024-02-26T12:59:00;6.57;;;1.83;;
58360;SDS011;44164;44.954;10.068;2024-02-26T13:01:28;4.63;;;1.40;;
58360;SDS011;44164;44.954;10.068;2024-02-26T13:03:54;6.13;;;2.05;;
58360;SDS011;44164;44.954;10.068;2024-02-26T13:06:20;4.57;;;1.80;;
58360;SDS011;44164;44.954;10.068;2024-02-26T13:08:55;2.60;;;1.83;;
58360;SDS011;44164;44.954;10.068;2024-02-26T13:11:23;6.03;;;1.80;;
58360;SDS011;44164;44.954;10.068;2024-02-26T13:13:50;4.32;;;1.75;;
58360;SDS011;44164;44.954;10.068;2024-02-26T13:16:16;4.32;;;1.80;;
58360;SDS011;44164;44.954;10.068;2024-02-26T13:18:42;2.22;;;1.40;;
58360;SDS011;44164;44.954;10.068;2024-02-26T13:21:10;4.38;;;1.60;;
58360;SDS011;44164;44.954;10.068;2024-02-26T13:23:37;2.88;;;1.25;;
58360;SDS011;44164;44.954;10.068;2024-02-26T13:26:07;3.58;;;1.55;;
58360;SDS011;44164;44.954;10.068;2024-02-26T13:28:33;3.92;;;1.65;;
58360;SDS011;44164;44.954;10.068;2024-02-26T13:31:00;2.67;;;1.60;;
58360;SDS011;44164;44.954;10.068;2024-02-26T13:33:27;4.30;;;1.63;;
58360;SDS011;44164;44.954;10.068;2024-02-26T13:35:57;2.17;;;1.60;;
58360;SDS011;44164;44.954;10.068;2024-02-26T13:38:23;2.42;;;1.63;;
58360;SDS011;44164;44.954;10.068;2024-02-26T13:40:50;3.03;;;1.80;;
58360;SDS011;44164;44.954;10.068;2024-02-26T13:43:17;2.83;;;1.63;;
58360;SDS011;44164;44.954;10.068;2024-02-26T13:45:43;2.47;;;1.35;;
58360;SDS011;44164;44.954;10.068;2024-02-26T13:48:11;1.83;;;1.25;;
58360;SDS011;44164;44.954;10.068;2024-02-26T13:50:37;2.72;;;1.60;;
58360;SDS011;44164;44.954;10.068;2024-02-26T13:53:04;2.42;;;1.38;;
58360;SDS011;44164;44.954;10.068;2024-02-26T13:55:31;3.78;;;1.77;;
58360;SDS011;44164;44.954;10.068;2024-02-26T13:57:58;2.20;;;1.40;;
58360;SDS011;44164;44.954;10.068;2024-02-26T14:00:27;2.95;;;1.42;;
58360;SDS011;44164;44.954;10.068;2024-02-26T14:02:54;3.45;;;1.80;;
58360;SDS011;44164;44.954;10.068;2024-02-26T14:05:20;6.25;;;1.55;;
58360;SDS011;44164;44.954;10.068;2024-02-26T14:07:46;6.53;;;1.48;;
58360;SDS011;44164;44.954;10.068;2024-02-26T14:10:13;2.65;;;1.27;;
58360;SDS011;44164;44.954;10.068;2024-02-26T14:12:39;2.72;;;1.45;;
58360;SDS011;44164;44.954;10.068;2024-02-26T14:15:06;3.92;;;1.40;;
58360;SDS011;44164;44.954;10.068;2024-02-26T14:17:33;3.00;;;1.63;;
58360;SDS011;44164;44.954;10.068;2024-02-26T14:19:59;2.30;;;1.27;;
58360;SDS011;44164;44.954;10.068;2024-02-26T14:22:25;3.00;;;1.30;;
58360;SDS011;44164;44.954;10.068;2024-02-26T14:24:58;2.00;;;1.15;;
58360;SDS011;44164;44.954;10.068;2024-02-26T14:27:25;2.08;;;1.25;;
58360;SDS011;44164;44.954;10.068;2024-02-26T14:29:51;2.42;;;1.58;;
58360;SDS011;44164;44.954;10.068;2024-02-26T14:32:17;2.50;;;1.45;;
58360;SDS011;44164;44.954;10.068;2024-02-26T14:34:43;2.85;;;1.77;;
58360;SDS011;44164;44.954;10.068;2024-02-26T14:37:10;2.33;;;1.60;;
58360;SDS011;44164;44.954;10.068;2024-02-26T14:39:37;2.40;;;1.50;;
58360;SDS011;44164;44.954;10.068;2024-02-26T14:42:04;3.10;;;1.60;;
58360;SDS011;44164;44.954;10.068;2024-02-26T14:44:30;3.53;;;1.67;;